Time;durP1;ratioP1;P1;durP2;ratioP2;P2;SDS_P1;SDS_P2;PMS_P1;PMS_P2;Temp;Humidity;BMP_temperature;BMP_pressure;BME280_temperature;BME280_humidity;BME280_pressure;Samples;Min_cycle;Max_cycle;Signal;HPM_P1;HPM_P2
2024/03/21 00:00:21;;;;;;;;;;;6.60;99.90;;;;;;5031808;28;19932;-60
2024/03/21 00:02:46;;;;;;;;;;;6.50;99.90;;;;;;5041653;28;20295;-61
2024/03/21 00:05:14;;;;;;;;;;;6.50;99.90;;;;;;5037793;28;19917;-61
2024/03/21 00:07:40;;;;;;;;;;;6.40;99.90;;;;;;5049139;28;19920;-60
2024/03/21 00:10:06;;;;;;;;;;;6.40;99.90;;;;;;5038736;28;19917;-61
2024/03/21 00:12:31;;;;;;;;;;;6.40;99.90;;;;;;5038770;28;19944;-61
2024/03/21 00:14:57;;;;;;;;;;;6.40;99.90;;;;;;5031831;28;20020;-61
2024/03/21 00:17:22;;;;;;;;;;;6.40;99.90;;;;;;5039426;28;19913;-60
2024/03/21 00:19:48;;;;;;;;;;;6.40;99.90;;;;;;5039591;28;19934;-61
2024/03/21 00:22:13;;;;;;;;;;;6.30;99.90;;;;;;5045655;28;20296;-61
2024/03/21 00:24:39;;;;;;;;;;;6.30;99.90;;;;;;5041733;28;19913;-62
2024/03/21 00:27:04;;;;;;;;;;;6.30;99.90;;;;;;5031339;28;19921;-60
2024/03/21 00:29:30;;;;;;;;;;;6.20;99.90;;;;;;5031179;28;19909;-61
2024/03/21 00:31:56;;;;;;;;;;;6.10;99.90;;;;;;5039802;28;19968;-61
2024/03/21 00:34:21;;;;;;;;;;;6.00;99.90;;;;;;5031765;28;20376;-61
2024/03/21 00:36:47;;;;;;;;;;;6.00;99.90;;;;;;5030887;28;19916;-59
2024/03/21 00:39:19;;;;;;;;;;;6.10;99.90;;;;;;5030654;28;20003;-60
2024/03/21 00:41:45;;;;;;;;;;;6.20;99.90;;;;;;5031180;28;20385;-58
2024/03/21 00:44:11;;;;;;;;;;;6.20;99.90;;;;;;5044978;28;19913;-57
2024/03/21 00:46:37;;;;;;;;;;;6.10;99.90;;;;;;5033268;28;19917;-61
2024/03/21 00:49:03;;;;;;;;;;;6.10;99.90;;;;;;5043312;28;19928;-61
2024/03/21 00:51:31;;;;;;;;;;;6.00;99.90;;;;;;5042952;28;19913;-57
2024/03/21 00:53:57;;;;;;;;;;;6.00;99.90;;;;;;5026435;28;20327;-62
2024/03/21 00:56:23;;;;;;;;;;;5.90;99.90;;;;;;5037296;28;19919;-60
2024/03/21 00:58:48;;;;;;;;;;;5.90;99.90;;;;;;5038449;28;19913;-60
2024/03/21 01:01:14;;;;;;;;;;;5.80;99.90;;;;;;5031148;28;19924;-60
2024/03/21 01:03:39;;;;;;;;;;;5.70;99.90;;;;;;5040014;28;19924;-60
2024/03/21 01:06:05;;;;;;;;;;;5.60;99.90;;;;;;5037461;28;19913;-60
2024/03/21 01:08:30;;;;;;;;;;;5.50;99.90;;;;;;5037598;28;20369;-61
2024/03/21 01:10:56;;;;;;;;;;;5.50;99.90;;;;;;5038880;28;19913;-61
2024/03/21 01:13:21;;;;;;;;;;;5.40;99.90;;;;;;5037545;28;19924;-60
2024/03/21 01:15:47;;;;;;;;;;;5.40;99.90;;;;;;5048209;28;19917;-58
2024/03/21 01:18:13;;;;;;;;;;;5.30;99.90;;;;;;5030074;28;20377;-59
2024/03/21 01:20:41;;;;;;;;;;;5.40;99.90;;;;;;5030262;28;19924;-61
2024/03/21 01:23:07;;;;;;;;;;;5.40;99.90;;;;;;5038805;28;19909;-60
2024/03/21 01:25:33;;;;;;;;;;;5.50;99.90;;;;;;5038623;28;19913;-61
2024/03/21 01:28:00;;;;;;;;;;;5.50;99.90;;;;;;5038156;28;19921;-59
2024/03/21 01:30:28;;;;;;;;;;;5.40;99.90;;;;;;5029922;28;19920;-60
2024/03/21 01:32:54;;;;;;;;;;;5.40;99.90;;;;;;5038491;28;20003;-60
2024/03/21 01:35:19;;;;;;;;;;;5.30;99.90;;;;;;5033798;28;20027;-61
2024/03/21 01:37:44;;;;;;;;;;;5.20;99.90;;;;;;5031741;28;19939;-59
2024/03/21 01:40:11;;;;;;;;;;;5.20;99.90;;;;;;5043328;28;19917;-59
2024/03/21 01:42:37;;;;;;;;;;;5.20;99.90;;;;;;5033453;28;19964;-61
2024/03/21 01:45:06;;;;;;;;;;;5.10;99.90;;;;;;5037545;28;19913;-58
2024/03/21 01:47:32;;;;;;;;;;;5.20;99.90;;;;;;5030002;28;19967;-61
2024/03/21 01:49:57;;;;;;;;;;;5.20;99.90;;;;;;5029729;28;20011;-59
2024/03/21 01:52:23;;;;;;;;;;;5.20;99.90;;;;;;5038429;28;19917;-60
2024/03/21 01:54:49;;;;;;;;;;;5.20;99.90;;;;;;5046307;28;19928;-59
2024/03/21 01:57:15;;;;;;;;;;;5.20;99.90;;;;;;5029995;28;19917;-59
2024/03/21 01:59:40;;;;;;;;;;;5.30;99.90;;;;;;5029473;28;19920;-60
2024/03/21 02:02:05;;;;;;;;;;;5.30;99.90;;;;;;5030060;28;19913;-61
2024/03/21 02:04:32;;;;;;;;;;;5.30;99.90;;;;;;5012025;28;19978;-61
2024/03/21 02:06:57;;;;;;;;;;;5.10;99.90;;;;;;5046293;28;20373;-60
2024/03/21 02:09:25;;;;;;;;;;;5.00;99.90;;;;;;5039004;28;19913;-60
2024/03/21 02:11:51;;;;;;;;;;;5.00;99.90;;;;;;5039029;28;19939;-59
2024/03/21 02:14:17;;;;;;;;;;;5.10;99.90;;;;;;5029615;28;20373;-59
2024/03/21 02:16:42;;;;;;;;;;;4.90;99.90;;;;;;5045901;28;19991;-58
2024/03/21 02:19:08;;;;;;;;;;;4.90;99.90;;;;;;5037454;28;19921;-61
2024/03/21 02:24:17;;;;;;;;;;;4.80;99.90;;;;;;5034195;28;19940;-60
2024/03/21 02:26:43;;;;;;;;;;;4.80;99.90;;;;;;5041676;28;19928;-59
2024/03/21 02:29:08;;;;;;;;;;;4.80;99.90;;;;;;5015452;28;19923;-60
2024/03/21 02:31:34;;;;;;;;;;;4.80;99.90;;;;;;5050085;28;19917;-59
2024/03/21 02:33:59;;;;;;;;;;;4.80;99.90;;;;;;5033503;28;19925;-58
2024/03/21 02:36:24;;;;;;;;;;;4.80;99.90;;;;;;5041830;28;19963;-59
2024/03/21 02:38:50;;;;;;;;;;;4.80;99.90;;;;;;5033081;28;19948;-58
2024/03/21 02:41:16;;;;;;;;;;;4.80;99.90;;;;;;5033504;28;19939;-60
2024/03/21 02:43:41;;;;;;;;;;;4.90;99.90;;;;;;5042133;28;19913;-60
2024/03/21 02:46:07;;;;;;;;;;;4.90;99.90;;;;;;5033150;28;20445;-58
2024/03/21 02:48:34;;;;;;;;;;;4.90;99.90;;;;;;5049096;28;19921;-59
2024/03/21 02:50:59;;;;;;;;;;;4.90;99.90;;;;;;5037052;28;19920;-56
2024/03/21 02:53:25;;;;;;;;;;;4.80;99.90;;;;;;5046029;28;19937;-59
2024/03/21 02:55:50;;;;;;;;;;;4.80;99.90;;;;;;5041173;28;20377;-59
2024/03/21 02:58:15;;;;;;;;;;;4.70;99.90;;;;;;5038702;28;19936;-60
2024/03/21 03:00:41;;;;;;;;;;;4.70;99.90;;;;;;5035082;28;19913;-60
2024/03/21 03:03:07;;;;;;;;;;;4.60;99.90;;;;;;5032971;28;20002;-61
2024/03/21 03:05:39;;;;;;;;;;;4.50;99.90;;;;;;5033132;28;19917;-60
2024/03/21 03:08:04;;;;;;;;;;;4.60;99.90;;;;;;5037179;28;19917;-59
2024/03/21 03:10:29;;;;;;;;;;;4.50;99.90;;;;;;5036269;28;19920;-58
2024/03/21 03:12:55;;;;;;;;;;;4.50;99.90;;;;;;5036089;28;19919;-61
2024/03/21 03:15:20;;;;;;;;;;;4.50;99.90;;;;;;5037752;28;19917;-61
2024/03/21 03:17:46;;;;;;;;;;;4.50;99.90;;;;;;5032781;28;20324;-61
2024/03/21 03:20:11;;;;;;;;;;;4.60;99.90;;;;;;5037689;28;20020;-59
2024/03/21 03:22:37;;;;;;;;;;;4.60;99.90;;;;;;5043599;28;20102;-59
2024/03/21 03:25:02;;;;;;;;;;;4.60;99.90;;;;;;5041301;28;20383;-61
2024/03/21 03:27:28;;;;;;;;;;;4.50;99.90;;;;;;5032555;28;19921;-57
2024/03/21 03:29:53;;;;;;;;;;;4.50;99.90;;;;;;5034799;28;19917;-60
2024/03/21 03:32:21;;;;;;;;;;;4.60;99.90;;;;;;5037043;28;20679;-59
2024/03/21 03:37:31;;;;;;;;;;;4.60;99.90;;;;;;5044306;28;19982;-61
2024/03/21 03:39:56;;;;;;;;;;;4.70;99.90;;;;;;5032215;28;20373;-58
2024/03/21 03:42:22;;;;;;;;;;;4.70;99.90;;;;;;5032481;28;19939;-60
2024/03/21 03:44:47;;;;;;;;;;;4.80;99.90;;;;;;5040425;28;20135;-60
2024/03/21 03:47:13;;;;;;;;;;;4.80;99.90;;;;;;5032427;28;19929;-59
2024/03/21 03:49:38;;;;;;;;;;;4.80;99.90;;;;;;5039807;28;19917;-59
2024/03/21 03:52:03;;;;;;;;;;;4.70;99.90;;;;;;5032309;28;19920;-61
2024/03/21 03:54:29;;;;;;;;;;;4.80;99.90;;;;;;5032169;28;19917;-60
2024/03/21 03:56:54;;;;;;;;;;;4.70;99.90;;;;;;5031860;28;19964;-60
2024/03/21 03:59:20;;;;;;;;;;;4.80;99.90;;;;;;5039788;28;20305;-60
2024/03/21 04:01:47;;;;;;;;;;;4.80;99.90;;;;;;5032097;28;19917;-59
2024/03/21 04:04:13;;;;;;;;;;;4.80;99.90;;;;;;5032134;28;19917;-60
2024/03/21 04:06:40;;;;;;;;;;;4.80;99.90;;;;;;5013747;28;19917;-60
2024/03/21 04:09:05;;;;;;;;;;;4.70;99.90;;;;;;5039599;28;20289;-59
2024/03/21 04:11:32;;;;;;;;;;;4.70;99.90;;;;;;5022253;28;19913;-59
2024/03/21 04:13:58;;;;;;;;;;;4.70;99.90;;;;;;5040116;28;19909;-59
2024/03/21 04:16:23;;;;;;;;;;;4.70;99.90;;;;;;5031637;28;20289;-61
2024/03/21 04:18:49;;;;;;;;;;;4.70;99.90;;;;;;5033318;28;19921;-58
2024/03/21 04:21:14;;;;;;;;;;;4.70;99.90;;;;;;5043202;28;20288;-60
2024/03/21 04:23:40;;;;;;;;;;;4.80;99.90;;;;;;5050490;28;20006;-60
2024/03/21 04:26:05;;;;;;;;;;;4.80;99.90;;;;;;5039697;28;19924;-58
2024/03/21 04:28:31;;;;;;;;;;;4.80;99.90;;;;;;5030838;28;19921;-57
2024/03/21 04:30:56;;;;;;;;;;;4.90;99.90;;;;;;5031628;28;19923;-60
2024/03/21 04:33:21;;;;;;;;;;;4.90;99.90;;;;;;5031372;28;20400;-62
2024/03/21 04:35:47;;;;;;;;;;;4.80;99.90;;;;;;5039686;28;19960;-60
2024/03/21 04:38:12;;;;;;;;;;;4.80;99.90;;;;;;5036076;28;20278;-61
2024/03/21 04:40:38;;;;;;;;;;;4.80;99.90;;;;;;5042245;28;19979;-61
2024/03/21 04:43:03;;;;;;;;;;;4.80;99.90;;;;;;5039728;28;19996;-58
2024/03/21 04:45:29;;;;;;;;;;;4.70;99.90;;;;;;5031108;28;20416;-59
2024/03/21 04:47:55;;;;;;;;;;;4.60;99.90;;;;;;5030942;28;20001;-59
2024/03/21 04:50:21;;;;;;;;;;;4.70;99.90;;;;;;5030575;28;19920;-60
2024/03/21 04:52:47;;;;;;;;;;;4.70;99.90;;;;;;5031052;28;20320;-61
2024/03/21 04:55:12;;;;;;;;;;;4.70;99.90;;;;;;5030853;28;19944;-59
2024/03/21 04:57:38;;;;;;;;;;;4.70;99.90;;;;;;5039009;28;19912;-60
2024/03/21 05:00:05;;;;;;;;;;;4.70;99.90;;;;;;5030522;28;19944;-59
2024/03/21 05:02:30;;;;;;;;;;;4.70;99.90;;;;;;5038691;28;20280;-59
2024/03/21 05:04:56;;;;;;;;;;;4.90;99.90;;;;;;5034006;28;19913;-59
2024/03/21 05:07:21;;;;;;;;;;;4.90;99.90;;;;;;5035482;28;19925;-59
2024/03/21 05:09:47;;;;;;;;;;;5.00;99.90;;;;;;5040128;28;19959;-59
2024/03/21 05:12:13;;;;;;;;;;;5.00;99.90;;;;;;5037283;28;19920;-58
2024/03/21 05:14:38;;;;;;;;;;;5.10;99.90;;;;;;5030736;28;20575;-60
2024/03/21 05:17:04;;;;;;;;;;;5.10;99.90;;;;;;5030575;28;19917;-56
2024/03/21 05:19:30;;;;;;;;;;;5.10;99.90;;;;;;5037752;28;19916;-58
2024/03/21 05:21:55;;;;;;;;;;;5.10;99.90;;;;;;5031059;28;19928;-60
2024/03/21 05:24:21;;;;;;;;;;;5.10;99.90;;;;;;5030532;28;20496;-59
2024/03/21 05:26:46;;;;;;;;;;;5.20;99.90;;;;;;5030415;28;19913;-60
2024/03/21 05:29:12;;;;;;;;;;;5.20;99.90;;;;;;5029903;28;20408;-61
2024/03/21 05:31:37;;;;;;;;;;;5.20;99.90;;;;;;5030373;28;19924;-60
2024/03/21 05:34:02;;;;;;;;;;;5.20;99.90;;;;;;5030674;28;20307;-60
2024/03/21 05:36:29;;;;;;;;;;;5.20;99.90;;;;;;5030205;28;20036;-59
2024/03/21 05:38:54;;;;;;;;;;;5.30;99.90;;;;;;5037961;28;19917;-60
2024/03/21 05:41:20;;;;;;;;;;;5.30;99.90;;;;;;5029127;28;19913;-59
2024/03/21 05:43:45;;;;;;;;;;;5.30;99.90;;;;;;5037569;28;19921;-59
2024/03/21 05:46:11;;;;;;;;;;;5.30;99.90;;;;;;5034428;28;19940;-60
2024/03/21 05:48:36;;;;;;;;;;;5.40;99.90;;;;;;5032400;28;19937;-57
2024/03/21 05:51:02;;;;;;;;;;;5.40;99.90;;;;;;5041060;28;19912;-62
2024/03/21 05:53:28;;;;;;;;;;;5.50;99.90;;;;;;5040981;28;20376;-60
2024/03/21 05:55:58;;;;;;;;;;;5.50;99.90;;;;;;5029645;28;19995;-62
2024/03/21 05:58:23;;;;;;;;;;;5.60;99.90;;;;;;5028712;28;19983;-60
2024/03/21 06:03:40;;;;;;;;;;;5.70;99.90;;;;;;5028459;28;20297;-60
2024/03/21 06:06:06;;;;;;;;;;;5.70;99.90;;;;;;5029105;28;20004;-60
2024/03/21 06:08:31;;;;;;;;;;;5.80;99.90;;;;;;5028634;28;19949;-58
2024/03/21 06:10:57;;;;;;;;;;;5.80;99.90;;;;;;5036994;28;19914;-60
2024/03/21 06:13:22;;;;;;;;;;;5.80;99.90;;;;;;5029237;28;19928;-60
2024/03/21 06:15:48;;;;;;;;;;;5.80;99.90;;;;;;5029115;28;19914;-60
2024/03/21 06:18:14;;;;;;;;;;;5.80;99.90;;;;;;5042137;28;19917;-59
2024/03/21 06:20:40;;;;;;;;;;;5.80;99.90;;;;;;5048194;28;19912;-61
2024/03/21 06:23:05;;;;;;;;;;;5.90;99.90;;;;;;5037422;28;19931;-61
2024/03/21 06:25:31;;;;;;;;;;;5.90;99.90;;;;;;5044923;28;19917;-61
2024/03/21 06:27:56;;;;;;;;;;;6.00;99.90;;;;;;5029277;28;19992;-61
2024/03/21 06:30:22;;;;;;;;;;;6.10;99.90;;;;;;5028440;28;19992;-61
2024/03/21 06:32:47;;;;;;;;;;;6.10;99.90;;;;;;5037010;28;19991;-60
2024/03/21 06:35:13;;;;;;;;;;;6.30;99.90;;;;;;5033852;28;19970;-61
2024/03/21 06:37:38;;;;;;;;;;;6.30;99.90;;;;;;5031734;28;20322;-61
2024/03/21 06:40:06;;;;;;;;;;;6.40;99.90;;;;;;5036716;28;20019;-61
2024/03/21 06:42:32;;;;;;;;;;;6.40;99.90;;;;;;5029195;28;19913;-60
2024/03/21 06:44:58;;;;;;;;;;;6.50;99.90;;;;;;5031926;28;19915;-60
2024/03/21 06:47:24;;;;;;;;;;;6.50;99.90;;;;;;5033661;28;20027;-59
2024/03/21 06:49:49;;;;;;;;;;;6.60;99.90;;;;;;5030210;28;20004;-61
2024/03/21 06:52:15;;;;;;;;;;;6.70;99.90;;;;;;5040555;28;19916;-61
2024/03/21 06:54:41;;;;;;;;;;;6.80;99.90;;;;;;5031321;28;20339;-61
2024/03/21 06:57:06;;;;;;;;;;;7.00;99.90;;;;;;5028255;28;19928;-61
2024/03/21 06:59:32;;;;;;;;;;;7.20;99.90;;;;;;5028663;28;20058;-59
2024/03/21 07:01:57;;;;;;;;;;;7.50;99.90;;;;;;5031651;28;20360;-61
2024/03/21 07:04:23;;;;;;;;;;;7.90;99.90;;;;;;5033518;28;19952;-61
2024/03/21 07:06:48;;;;;;;;;;;8.30;99.90;;;;;;5037468;28;19923;-60
2024/03/21 07:09:14;;;;;;;;;;;8.70;99.90;;;;;;5037122;28;19971;-58
2024/03/21 07:11:39;;;;;;;;;;;9.10;99.90;;;;;;5034880;28;19913;-60
2024/03/21 07:14:05;;;;;;;;;;;9.40;99.90;;;;;;5032217;28;19913;-61
2024/03/21 07:16:31;;;;;;;;;;;9.50;99.90;;;;;;5039776;28;19967;-61
2024/03/21 07:18:57;;;;;;;;;;;9.60;99.90;;;;;;5031969;28;20355;-59
2024/03/21 07:21:22;;;;;;;;;;;9.80;99.90;;;;;;5031888;28;20016;-61
2024/03/21 07:23:48;;;;;;;;;;;10.10;99.90;;;;;;5031780;28;20382;-60
2024/03/21 07:26:13;;;;;;;;;;;10.40;99.90;;;;;;5032139;28;19917;-61
2024/03/21 07:28:39;;;;;;;;;;;10.70;99.90;;;;;;5039410;28;20392;-61
2024/03/21 07:31:05;;;;;;;;;;;11.00;99.90;;;;;;5035929;28;19971;-61
2024/03/21 07:33:30;;;;;;;;;;;11.30;99.90;;;;;;5035827;28;19943;-58
2024/03/21 07:35:56;;;;;;;;;;;11.40;99.90;;;;;;5031472;28;19921;-61
2024/03/21 07:38:23;;;;;;;;;;;11.40;99.90;;;;;;5031263;28;19945;-61
2024/03/21 07:40:55;;;;;;;;;;;11.40;99.90;;;;;;5031591;28;19940;-60
2024/03/21 07:43:20;;;;;;;;;;;11.40;99.90;;;;;;5037690;28;19921;-60
2024/03/21 07:45:46;;;;;;;;;;;11.60;99.90;;;;;;5033188;28;20387;-59
2024/03/21 07:48:11;;;;;;;;;;;11.70;99.90;;;;;;5030724;28;20377;-61
2024/03/21 07:50:37;;;;;;;;;;;11.70;99.90;;;;;;5031049;28;19913;-61
2024/03/21 07:53:03;;;;;;;;;;;11.70;99.90;;;;;;5031546;28;19917;-61
2024/03/21 07:55:29;;;;;;;;;;;11.80;99.90;;;;;;5038430;28;19917;-59
2024/03/21 07:57:55;;;;;;;;;;;12.00;99.90;;;;;;5032207;28;20266;-60
2024/03/21 08:00:20;;;;;;;;;;;12.10;99.90;;;;;;5031103;28;19925;-60
2024/03/21 08:02:46;;;;;;;;;;;12.30;99.90;;;;;;5039235;28;19917;-60
2024/03/21 08:05:11;;;;;;;;;;;12.50;99.90;;;;;;5031195;28;19956;-62
2024/03/21 08:07:37;;;;;;;;;;;12.50;99.90;;;;;;5039005;28;20301;-58
2024/03/21 08:10:03;;;;;;;;;;;12.50;99.90;;;;;;5038698;28;19965;-61
2024/03/21 08:12:28;;;;;;;;;;;12.50;99.90;;;;;;5038214;28;19939;-59
2024/03/21 08:14:54;;;;;;;;;;;12.40;99.90;;;;;;5034188;28;20385;-60
2024/03/21 08:17:20;;;;;;;;;;;12.30;99.90;;;;;;5044333;28;19913;-59
2024/03/21 08:19:45;;;;;;;;;;;12.30;99.90;;;;;;5046772;28;20343;-60
2024/03/21 08:22:11;;;;;;;;;;;12.30;99.90;;;;;;5039026;28;19920;-61
2024/03/21 08:24:38;;;;;;;;;;;12.40;99.90;;;;;;5038913;28;20086;-59
2024/03/21 08:27:04;;;;;;;;;;;12.60;99.90;;;;;;5034405;28;19913;-58
2024/03/21 08:29:30;;;;;;;;;;;12.90;99.90;;;;;;5042055;28;19919;-61
2024/03/21 08:31:57;;;;;;;;;;;13.30;99.90;;;;;;5031153;28;19917;-60
2024/03/21 08:34:23;;;;;;;;;;;13.60;99.90;;;;;;5030539;28;19967;-61
2024/03/21 08:36:48;;;;;;;;;;;14.00;99.90;;;;;;5030301;28;19913;-59
2024/03/21 08:39:13;;;;;;;;;;;14.50;99.90;;;;;;5029779;28;20014;-61
2024/03/21 08:41:39;;;;;;;;;;;15.10;99.90;;;;;;5038421;28;19939;-61
2024/03/21 08:44:06;;;;;;;;;;;15.50;99.90;;;;;;5030353;28;19920;-59
2024/03/21 08:46:31;;;;;;;;;;;15.60;99.90;;;;;;5029841;28;19921;-61
2024/03/21 08:48:57;;;;;;;;;;;15.40;99.90;;;;;;5037643;28;19979;-61
2024/03/21 08:51:22;;;;;;;;;;;15.60;99.90;;;;;;5029984;28;19937;-61
2024/03/21 08:53:47;;;;;;;;;;;15.70;99.90;;;;;;5038302;28;20322;-61
2024/03/21 08:56:13;;;;;;;;;;;15.70;99.90;;;;;;5029923;28;20013;-62
2024/03/21 08:58:38;;;;;;;;;;;15.40;99.90;;;;;;5029231;28;20396;-62
2024/03/21 09:01:04;;;;;;;;;;;15.10;99.90;;;;;;5029828;28;20000;-59
2024/03/21 09:03:31;;;;;;;;;;;14.50;99.90;;;;;;5038016;28;19913;-60
2024/03/21 09:05:57;;;;;;;;;;;14.20;99.90;;;;;;5029471;28;21377;-58
2024/03/21 09:08:23;;;;;;;;;;;13.80;99.90;;;;;;5036571;28;19921;-60
2024/03/21 09:10:48;;;;;;;;;;;13.40;99.90;;;;;;5029112;28;19917;-59
2024/03/21 09:13:14;;;;;;;;;;;13.50;99.90;;;;;;5029509;28;20310;-59
2024/03/21 09:15:39;;;;;;;;;;;13.50;99.90;;;;;;5029198;28;19975;-61
2024/03/21 09:18:05;;;;;;;;;;;13.40;99.90;;;;;;5038045;28;19919;-60
2024/03/21 09:20:31;;;;;;;;;;;13.30;99.90;;;;;;5037482;28;19914;-61
2024/03/21 09:22:56;;;;;;;;;;;13.30;99.90;;;;;;5029441;28;19909;-60
2024/03/21 09:25:22;;;;;;;;;;;13.20;99.90;;;;;;5043838;28;19959;-62
2024/03/21 09:27:48;;;;;;;;;;;13.10;99.90;;;;;;5032493;28;19917;-60
2024/03/21 09:30:13;;;;;;;;;;;13.00;99.90;;;;;;5035145;28;20433;-61
2024/03/21 09:32:39;;;;;;;;;;;13.00;99.90;;;;;;5037583;28;19986;-59
2024/03/21 09:35:06;;;;;;;;;;;12.80;99.90;;;;;;5041287;28;19919;-62
2024/03/21 09:37:32;;;;;;;;;;;12.70;99.90;;;;;;5040836;28;20402;-61
2024/03/21 09:39:57;;;;;;;;;;;12.60;99.90;;;;;;5048800;28;19921;-59
2024/03/21 09:42:23;;;;;;;;;;;12.60;99.90;;;;;;5043060;28;20377;-58
2024/03/21 09:44:51;;;;;;;;;;;12.60;99.90;;;;;;5028969;28;19960;-60
2024/03/21 09:47:19;;;;;;;;;;;12.60;99.90;;;;;;5042519;28;19952;-59
2024/03/21 09:49:47;;;;;;;;;;;12.70;99.90;;;;;;5029829;28;21369;-58
2024/03/21 09:52:12;;;;;;;;;;;12.70;99.90;;;;;;5037431;28;20000;-59
2024/03/21 09:54:38;;;;;;;;;;;12.70;99.90;;;;;;5037007;28;20086;-61
2024/03/21 09:57:05;;;;;;;;;;;12.80;99.90;;;;;;5032441;28;19924;-60
2024/03/21 09:59:30;;;;;;;;;;;12.80;99.90;;;;;;5033041;28;20463;-60
2024/03/21 10:01:56;;;;;;;;;;;12.80;99.90;;;;;;5037220;28;19960;-60
2024/03/21 10:04:22;;;;;;;;;;;12.80;99.90;;;;;;5037157;28;19987;-60
2024/03/21 10:06:48;;;;;;;;;;;12.80;99.90;;;;;;5028698;28;19987;-60
2024/03/21 10:09:14;;;;;;;;;;;12.80;99.90;;;;;;5028415;28;20377;-60
2024/03/21 10:11:42;;;;;;;;;;;12.80;99.90;;;;;;5036844;28;20450;-60
2024/03/21 10:14:11;;;;;;;;;;;12.80;99.90;;;;;;5029671;28;19909;-57
2024/03/21 10:16:38;;;;;;;;;;;12.80;99.90;;;;;;5029028;28;20028;-60
2024/03/21 10:19:04;;;;;;;;;;;12.90;99.90;;;;;;5048542;28;19995;-60
2024/03/21 10:21:29;;;;;;;;;;;13.00;99.90;;;;;;5033439;28;20012;-59
2024/03/21 10:24:05;;;;;;;;;;;13.00;99.90;;;;;;5030085;28;19921;-59
2024/03/21 10:26:31;;;;;;;;;;;12.90;99.90;;;;;;5033742;28;19913;-60
2024/03/21 10:28:56;;;;;;;;;;;13.10;99.90;;;;;;5030622;28;19940;-61
2024/03/21 10:31:22;;;;;;;;;;;13.30;99.90;;;;;;5034447;28;20060;-59
2024/03/21 10:33:49;;;;;;;;;;;13.40;99.90;;;;;;5028710;28;19924;-58
2024/03/21 10:36:15;;;;;;;;;;;13.70;99.90;;;;;;5033588;28;19924;-60
2024/03/21 10:38:41;;;;;;;;;;;14.00;99.90;;;;;;5031359;28;20172;-61
2024/03/21 10:41:14;;;;;;;;;;;14.20;99.90;;;;;;5030227;28;19913;-60
2024/03/21 10:43:42;;;;;;;;;;;14.20;99.90;;;;;;5040647;28;19913;-61
2024/03/21 10:46:09;;;;;;;;;;;14.40;99.90;;;;;;5040485;28;20436;-59
2024/03/21 10:48:35;;;;;;;;;;;14.60;99.90;;;;;;5040232;28;19948;-60
2024/03/21 10:51:10;;;;;;;;;;;14.60;99.90;;;;;;5035499;28;19959;-60
2024/03/21 10:53:36;;;;;;;;;;;15.00;99.90;;;;;;5035974;28;19949;-61
2024/03/21 10:56:08;;;;;;;;;;;15.80;99.90;;;;;;5035483;28;19948;-59
2024/03/21 10:58:41;;;;;;;;;;;16.10;99.90;;;;;;5043288;28;19940;-59
2024/03/21 11:01:06;;;;;;;;;;;16.40;99.90;;;;;;5032563;28;20293;-58
2024/03/21 11:03:32;;;;;;;;;;;16.60;99.90;;;;;;5021606;28;19913;-57
2024/03/21 11:05:58;;;;;;;;;;;16.70;99.90;;;;;;5032437;28;19921;-59
2024/03/21 11:08:24;;;;;;;;;;;16.20;99.90;;;;;;5037924;28;20000;-61
2024/03/21 11:10:49;;;;;;;;;;;16.10;99.90;;;;;;5033833;28;20025;-58
2024/03/21 11:13:15;;;;;;;;;;;15.90;99.90;;;;;;5032328;28;19956;-59
2024/03/21 11:15:40;;;;;;;;;;;15.50;99.90;;;;;;5031761;28;19917;-58
2024/03/21 11:18:06;;;;;;;;;;;15.50;99.90;;;;;;5044080;28;19967;-59
2024/03/21 11:20:32;;;;;;;;;;;15.70;99.90;;;;;;5036338;28;19917;-59
2024/03/21 11:22:57;;;;;;;;;;;16.10;99.90;;;;;;5034216;28;20388;-59
2024/03/21 11:25:23;;;;;;;;;;;16.20;99.90;;;;;;5037267;28;20012;-58
2024/03/21 11:27:48;;;;;;;;;;;16.30;99.90;;;;;;5031335;28;19936;-58
2024/03/21 11:30:14;;;;;;;;;;;16.40;99.90;;;;;;5031289;28;19921;-59
2024/03/21 11:32:39;;;;;;;;;;;16.40;99.90;;;;;;5031472;28;20274;-61
2024/03/21 11:35:05;;;;;;;;;;;16.30;99.90;;;;;;5034769;28;19917;-60
2024/03/21 11:37:30;;;;;;;;;;;16.30;99.90;;;;;;5044221;28;19917;-60
2024/03/21 11:39:56;;;;;;;;;;;16.10;99.90;;;;;;5033246;28;20012;-60
2024/03/21 11:42:25;;;;;;;;;;;16.00;99.90;;;;;;5037519;28;19917;-59
2024/03/21 11:44:50;;;;;;;;;;;16.10;99.90;;;;;;5039445;28;19975;-59
2024/03/21 11:47:16;;;;;;;;;;;16.10;99.90;;;;;;5029928;28;19959;-59
2024/03/21 11:49:51;;;;;;;;;;;16.20;99.90;;;;;;5030979;28;20403;-59
2024/03/21 11:52:17;;;;;;;;;;;16.00;99.90;;;;;;5037149;28;20028;-59
2024/03/21 11:54:43;;;;;;;;;;;16.10;99.90;;;;;;5039389;28;19921;-60
2024/03/21 11:57:11;;;;;;;;;;;16.20;99.90;;;;;;5031209;28;20281;-59
2024/03/21 11:59:40;;;;;;;;;;;16.30;99.90;;;;;;5030637;28;19943;-58
2024/03/21 12:02:11;;;;;;;;;;;16.30;99.90;;;;;;5026743;28;19956;-60
2024/03/21 12:04:36;;;;;;;;;;;16.50;99.90;;;;;;5034983;28;20059;-59
2024/03/21 12:07:01;;;;;;;;;;;16.80;99.90;;;;;;5042060;28;19916;-60
2024/03/21 12:09:27;;;;;;;;;;;16.90;99.90;;;;;;5035540;28;20297;-58
2024/03/21 12:11:52;;;;;;;;;;;17.10;99.90;;;;;;5032508;28;20300;-58
2024/03/21 12:14:18;;;;;;;;;;;17.20;99.90;;;;;;5045493;28;19944;-58
2024/03/21 12:16:43;;;;;;;;;;;17.20;99.90;;;;;;5038661;28;20292;-58
2024/03/21 12:19:09;;;;;;;;;;;17.50;99.90;;;;;;5030201;28;19917;-60
2024/03/21 12:21:34;;;;;;;;;;;17.60;99.90;;;;;;5030653;28;19959;-58
2024/03/21 12:24:00;;;;;;;;;;;17.60;99.90;;;;;;5033203;28;19956;-59
2024/03/21 12:26:26;;;;;;;;;;;17.40;99.90;;;;;;5041189;28;19917;-60
2024/03/21 12:28:52;;;;;;;;;;;17.40;99.90;;;;;;5031461;28;19971;-58
2024/03/21 12:31:18;;;;;;;;;;;17.40;99.90;;;;;;5030507;28;20000;-60
2024/03/21 12:33:44;;;;;;;;;;;17.30;99.90;;;;;;5030442;28;20400;-61
2024/03/21 12:36:10;;;;;;;;;;;17.20;99.90;;;;;;5030022;28;20379;-60
2024/03/21 12:38:36;;;;;;;;;;;17.20;99.90;;;;;;5029724;28;19935;-60
2024/03/21 12:41:02;;;;;;;;;;;17.20;99.90;;;;;;5030229;28;20347;-57
2024/03/21 12:43:27;;;;;;;;;;;17.20;99.90;;;;;;5036243;28;19980;-59
2024/03/21 12:45:55;;;;;;;;;;;17.10;99.90;;;;;;5030479;28;20007;-58
2024/03/21 12:48:22;;;;;;;;;;;17.00;99.90;;;;;;5043500;28;19943;-57
2024/03/21 12:50:48;;;;;;;;;;;17.00;99.90;;;;;;5048769;28;20016;-57
2024/03/21 12:53:17;;;;;;;;;;;16.80;99.90;;;;;;5030042;28;20011;-57
2024/03/21 12:55:42;;;;;;;;;;;16.80;99.90;;;;;;5037930;28;19969;-59
2024/03/21 12:58:08;;;;;;;;;;;16.80;99.90;;;;;;5029460;28;19948;-59
2024/03/21 13:00:33;;;;;;;;;;;17.00;99.90;;;;;;5037042;28;20303;-59
2024/03/21 13:02:58;;;;;;;;;;;17.40;99.90;;;;;;5038767;28;20020;-59
2024/03/21 13:05:25;;;;;;;;;;;17.80;99.90;;;;;;5028741;28;19995;-57
2024/03/21 13:07:50;;;;;;;;;;;18.30;99.90;;;;;;5037564;28;19933;-60
2024/03/21 13:10:16;;;;;;;;;;;18.10;99.90;;;;;;5029460;28;19920;-60
2024/03/21 13:12:41;;;;;;;;;;;17.90;99.90;;;;;;5029492;28;20024;-60
2024/03/21 13:15:07;;;;;;;;;;;17.90;99.90;;;;;;5030076;28;20254;-59
2024/03/21 13:17:32;;;;;;;;;;;17.60;99.90;;;;;;5029488;28;19913;-59
2024/03/21 13:19:58;;;;;;;;;;;17.60;99.90;;;;;;5039475;28;19913;-58
2024/03/21 13:22:24;;;;;;;;;;;17.30;99.90;;;;;;5041464;28;20309;-58
2024/03/21 13:24:53;;;;;;;;;;;16.90;99.90;;;;;;5031463;28;19914;-59
2024/03/21 13:27:21;;;;;;;;;;;16.90;99.90;;;;;;5034381;28;20317;-59
2024/03/21 13:29:47;;;;;;;;;;;16.90;99.90;;;;;;5031424;28;19917;-59
2024/03/21 13:32:12;;;;;;;;;;;17.10;99.90;;;;;;5029402;28;19922;-60
2024/03/21 13:34:37;;;;;;;;;;;17.30;99.90;;;;;;5037304;28;20444;-58
2024/03/21 13:37:03;;;;;;;;;;;17.50;99.90;;;;;;5028931;28;19921;-60
2024/03/21 13:39:28;;;;;;;;;;;17.50;99.90;;;;;;5035297;28;20035;-60
2024/03/21 13:41:54;;;;;;;;;;;17.40;99.90;;;;;;5038869;28;20335;-60
2024/03/21 13:44:19;;;;;;;;;;;17.40;99.90;;;;;;5029027;28;20007;-59
2024/03/21 13:46:47;;;;;;;;;;;17.70;99.90;;;;;;5036010;28;19925;-60
2024/03/21 13:49:12;;;;;;;;;;;17.60;99.90;;;;;;5032859;28;19917;-59
2024/03/21 13:51:37;;;;;;;;;;;17.60;99.90;;;;;;5040673;28;20008;-60
2024/03/21 13:54:03;;;;;;;;;;;17.50;99.90;;;;;;5029296;28;20377;-60
2024/03/21 13:56:29;;;;;;;;;;;17.20;99.90;;;;;;5029014;28;19979;-60
2024/03/21 13:58:55;;;;;;;;;;;17.30;99.90;;;;;;5028377;28;20003;-59
2024/03/21 14:01:20;;;;;;;;;;;17.30;99.90;;;;;;5029037;28;20136;-59
2024/03/21 14:03:46;;;;;;;;;;;17.50;99.90;;;;;;5029444;28;20001;-59
2024/03/21 14:06:17;;;;;;;;;;;17.60;99.90;;;;;;5040492;28;19913;-59
2024/03/21 14:08:46;;;;;;;;;;;17.60;99.90;;;;;;5031583;28;19978;-59
2024/03/21 14:11:12;;;;;;;;;;;17.70;99.90;;;;;;5028772;28;19960;-58
2024/03/21 14:13:38;;;;;;;;;;;17.70;99.90;;;;;;5028697;28;19935;-60
2024/03/21 14:16:04;;;;;;;;;;;17.50;99.90;;;;;;5038766;28;19921;-60
2024/03/21 14:18:29;;;;;;;;;;;17.40;99.90;;;;;;5032340;28;19965;-58
2024/03/21 14:20:58;;;;;;;;;;;17.40;99.90;;;;;;5041014;28;19991;-60
2024/03/21 14:23:28;;;;;;;;;;;17.20;99.90;;;;;;5032887;28;19921;-57